sensor_id;sensor_type;location;lat;lon;timestamp;pressure;altitude;pressure_sealevel;temperature;humidity
20027;BME280;10174;42.688;23.344;2023-07-08T00:01:54;95607.41;;;18.81;91.78
20027;BME280;10174;42.688;23.344;2023-07-08T00:04:20;95572.63;;;18.69;92.45
20027;BME280;10174;42.688;23.344;2023-07-08T00:06:46;95567.72;;;18.57;92.52
20027;BME280;10174;42.688;23.344;2023-07-08T00:09:11;95584.69;;;18.63;92.55
20027;BME280;10174;42.688;23.344;2023-07-08T00:11:37;95570.53;;;18.52;92.47
20027;BME280;10174;42.688;23.344;2023-07-08T00:14:03;95594.78;;;18.62;93.25
20027;BME280;10174;42.688;23.344;2023-07-08T00:16:28;95551.53;;;18.38;92.93
20027;BME280;10174;42.688;23.344;2023-07-08T00:18:53;95594.09;;;18.57;93.04
20027;BME280;10174;42.688;23.344;2023-07-08T00:21:19;95571.28;;;18.44;93.19
20027;BME280;10174;42.688;23.344;2023-07-08T00:23:46;95583.53;;;18.55;92.74
20027;BME280;10174;42.688;23.344;2023-07-08T00:26:36;95574.63;;;18.41;93.16
20027;BME280;10174;42.688;23.344;2023-07-08T00:29:02;95590.19;;;18.49;93.33
20027;BME280;10174;42.688;23.344;2023-07-08T00:31:28;95572.28;;;18.48;93.30
20027;BME280;10174;42.688;23.344;2023-07-08T00:33:56;95554.81;;;18.26;93.66
20027;BME280;10174;42.688;23.344;2023-07-08T00:36:23;95576.53;;;18.40;94.17
20027;BME280;10174;42.688;23.344;2023-07-08T00:38:49;95465.13;;;17.76;93.97
20027;BME280;10174;42.688;23.344;2023-07-08T00:51:36;95550.00;;;18.23;93.93
20027;BME280;10174;42.688;23.344;2023-07-08T00:54:16;95577.94;;;18.38;93.83
20027;BME280;10174;42.688;23.344;2023-07-08T00:57:02;95567.69;;;18.34;93.67
20027;BME280;10174;42.688;23.344;2023-07-08T00:59:39;95473.16;;;17.67;93.88
20027;BME280;10174;42.688;23.344;2023-07-08T01:02:11;95539.59;;;18.25;93.87
20027;BME280;10174;42.688;23.344;2023-07-08T01:07:08;95551.66;;;18.33;93.88
20027;BME280;10174;42.688;23.344;2023-07-08T01:09:40;95554.22;;;18.29;93.67
20027;BME280;10174;42.688;23.344;2023-07-08T01:12:13;95529.06;;;18.10;94.53
20027;BME280;10174;42.688;23.344;2023-07-08T01:14:42;95551.72;;;18.19;94.23
20027;BME280;10174;42.688;23.344;2023-07-08T01:17:09;95548.16;;;18.19;94.43
20027;BME280;10174;42.688;23.344;2023-07-08T01:19:40;95553.41;;;18.15;94.48
20027;BME280;10174;42.688;23.344;2023-07-08T01:22:07;95541.66;;;18.06;94.88
20027;BME280;10174;42.688;23.344;2023-07-08T01:24:38;95542.53;;;18.15;94.38
20027;BME280;10174;42.688;23.344;2023-07-08T01:27:06;95545.19;;;18.06;94.65
20027;BME280;10174;42.688;23.344;2023-07-08T01:29:32;95543.78;;;18.09;94.84
20027;BME280;10174;42.688;23.344;2023-07-08T01:31:58;95544.38;;;18.06;94.93
20027;BME280;10174;42.688;23.344;2023-07-08T01:34:31;95537.31;;;18.05;95.25
20027;BME280;10174;42.688;23.344;2023-07-08T01:36:58;95537.03;;;18.06;95.39
20027;BME280;10174;42.688;23.344;2023-07-08T01:39:28;95546.00;;;18.07;94.82
20027;BME280;10174;42.688;23.344;2023-07-08T01:41:55;95549.22;;;18.09;94.39
20027;BME280;10174;42.688;23.344;2023-07-08T01:44:32;95546.97;;;18.11;94.69
20027;BME280;10174;42.688;23.344;2023-07-08T01:47:06;95548.78;;;18.15;94.40
20027;BME280;10174;42.688;23.344;2023-07-08T01:49:33;95541.22;;;18.12;93.84
20027;BME280;10174;42.688;23.344;2023-07-08T01:52:01;95516.72;;;18.04;93.50
20027;BME280;10174;42.688;23.344;2023-07-08T01:54:27;95515.56;;;18.05;93.37
20027;BME280;10174;42.688;23.344;2023-07-08T01:56:56;95535.41;;;18.19;93.66
20027;BME280;10174;42.688;23.344;2023-07-08T01:59:22;95532.84;;;18.23;93.19
20027;BME280;10174;42.688;23.344;2023-07-08T02:01:47;95484.63;;;17.92;93.25
20027;BME280;10174;42.688;23.344;2023-07-08T02:04:15;95495.06;;;17.98;93.23
20027;BME280;10174;42.688;23.344;2023-07-08T02:06:40;95497.28;;;17.96;93.54
20027;BME280;10174;42.688;23.344;2023-07-08T02:09:07;95517.03;;;18.02;93.55
20027;BME280;10174;42.688;23.344;2023-07-08T02:11:32;95469.75;;;17.61;93.43
20027;BME280;10174;42.688;23.344;2023-07-08T02:13:58;95537.94;;;18.02;93.91
20027;BME280;10174;42.688;23.344;2023-07-08T02:16:25;95556.03;;;18.06;93.75
20027;BME280;10174;42.688;23.344;2023-07-08T02:18:51;95543.38;;;18.02;94.31
20027;BME280;10174;42.688;23.344;2023-07-08T02:21:16;95527.38;;;17.86;94.12
20027;BME280;10174;42.688;23.344;2023-07-08T02:23:44;95540.91;;;17.91;93.71
20027;BME280;10174;42.688;23.344;2023-07-08T02:26:10;95541.19;;;17.90;94.46
20027;BME280;10174;42.688;23.344;2023-07-08T02:28:35;95532.75;;;17.91;94.99
20027;BME280;10174;42.688;23.344;2023-07-08T02:31:03;95548.22;;;17.91;94.44
20027;BME280;10174;42.688;23.344;2023-07-08T02:33:29;95568.34;;;18.04;94.59
20027;BME280;10174;42.688;23.344;2023-07-08T02:35:58;95497.34;;;17.55;94.23
20027;BME280;10174;42.688;23.344;2023-07-08T02:38:25;95528.88;;;17.78;93.76
20027;BME280;10174;42.688;23.344;2023-07-08T02:40:51;95573.09;;;17.98;93.97
20027;BME280;10174;42.688;23.344;2023-07-08T02:43:16;95560.22;;;17.90;94.02
20027;BME280;10174;42.688;23.344;2023-07-08T02:45:41;95576.59;;;17.98;94.22
20027;BME280;10174;42.688;23.344;2023-07-08T02:48:07;95572.78;;;18.00;94.24
20027;BME280;10174;42.688;23.344;2023-07-08T02:50:32;95561.00;;;17.90;94.20
20027;BME280;10174;42.688;23.344;2023-07-08T02:52:57;95590.09;;;18.04;93.78
20027;BME280;10174;42.688;23.344;2023-07-08T02:55:23;95564.44;;;17.82;94.40
20027;BME280;10174;42.688;23.344;2023-07-08T02:57:49;95581.66;;;17.91;94.27
20027;BME280;10174;42.688;23.344;2023-07-08T03:00:14;95574.16;;;17.83;94.32
20027;BME280;10174;42.688;23.344;2023-07-08T03:02:40;95590.78;;;17.95;94.29
20027;BME280;10174;42.688;23.344;2023-07-08T03:05:06;95574.69;;;17.85;94.31
20027;BME280;10174;42.688;23.344;2023-07-08T03:07:31;95594.53;;;18.00;94.25
20027;BME280;10174;42.688;23.344;2023-07-08T03:09:57;95517.25;;;17.50;94.04
20027;BME280;10174;42.688;23.344;2023-07-08T03:12:22;95569.56;;;17.84;94.26
20027;BME280;10174;42.688;23.344;2023-07-08T03:14:48;95586.28;;;17.91;94.43
20027;BME280;10174;42.688;23.344;2023-07-08T03:17:13;95521.56;;;17.51;94.41
20027;BME280;10174;42.688;23.344;2023-07-08T03:19:38;95574.78;;;17.80;94.23
20027;BME280;10174;42.688;23.344;2023-07-08T03:22:04;95580.63;;;17.87;94.53
20027;BME280;10174;42.688;23.344;2023-07-08T03:24:31;95510.31;;;17.44;94.05
20027;BME280;10174;42.688;23.344;2023-07-08T03:26:56;95574.16;;;17.83;94.35
20027;BME280;10174;42.688;23.344;2023-07-08T03:29:22;95597.97;;;17.91;94.29
20027;BME280;10174;42.688;23.344;2023-07-08T03:31:48;95588.69;;;17.92;94.38
20027;BME280;10174;42.688;23.344;2023-07-08T03:34:14;95572.75;;;17.86;94.06
20027;BME280;10174;42.688;23.344;2023-07-08T03:36:45;95578.41;;;17.89;94.11
20027;BME280;10174;42.688;23.344;2023-07-08T03:39:17;95563.28;;;17.83;94.17
20027;BME280;10174;42.688;23.344;2023-07-08T03:41:43;95580.84;;;17.91;94.27
20027;BME280;10174;42.688;23.344;2023-07-08T03:44:08;95567.75;;;17.79;94.69
20027;BME280;10174;42.688;23.344;2023-07-08T03:46:34;95576.22;;;17.91;94.50
20027;BME280;10174;42.688;23.344;2023-07-08T03:48:59;95579.44;;;17.93;94.40
20027;BME280;10174;42.688;23.344;2023-07-08T03:51:36;95570.19;;;17.94;94.85
20027;BME280;10174;42.688;23.344;2023-07-08T03:54:02;95576.59;;;17.98;94.04
20027;BME280;10174;42.688;23.344;2023-07-08T03:56:28;95572.38;;;17.92;94.41
20027;BME280;10174;42.688;23.344;2023-07-08T03:58:53;95578.22;;;18.00;94.14
20027;BME280;10174;42.688;23.344;2023-07-08T04:01:21;95578.22;;;18.00;94.61
20027;BME280;10174;42.688;23.344;2023-07-08T04:03:51;95549.22;;;17.81;94.40
20027;BME280;10174;42.688;23.344;2023-07-08T04:06:16;95566.94;;;17.92;94.65
20027;BME280;10174;42.688;23.344;2023-07-08T04:08:42;95537.66;;;17.75;95.22
20027;BME280;10174;42.688;23.344;2023-07-08T04:11:13;95556.69;;;17.89;94.76
20027;BME280;10174;42.688;23.344;2023-07-08T04:13:39;95463.03;;;17.31;94.17
20027;BME280;10174;42.688;23.344;2023-07-08T04:16:05;95572.69;;;17.91;94.72
20027;BME280;10174;42.688;23.344;2023-07-08T04:18:31;95520.88;;;17.59;94.13
20027;BME280;10174;42.688;23.344;2023-07-08T04:20:57;95588.06;;;18.09;94.35
20027;BME280;10174;42.688;23.344;2023-07-08T04:23:23;95578.63;;;18.07;94.37
20027;BME280;10174;42.688;23.344;2023-07-08T04:25:50;95586.66;;;18.12;94.69
20027;BME280;10174;42.688;23.344;2023-07-08T04:28:16;95586.22;;;18.19;94.12
20027;BME280;10174;42.688;23.344;2023-07-08T04:30:42;95590.88;;;18.18;93.88
20027;BME280;10174;42.688;23.344;2023-07-08T04:33:09;95582.72;;;18.18;93.43
20027;BME280;10174;42.688;23.344;2023-07-08T04:35:35;95587.75;;;18.11;92.63
20027;BME280;10174;42.688;23.344;2023-07-08T04:38:45;95605.66;;;18.26;92.68
20027;BME280;10174;42.688;23.344;2023-07-08T04:40:52;95602.53;;;18.32;92.35
20027;BME280;10174;42.688;23.344;2023-07-08T04:43:19;95571.13;;;18.26;92.23
20027;BME280;10174;42.688;23.344;2023-07-08T04:45:47;95591.72;;;18.41;92.09
20027;BME280;10174;42.688;23.344;2023-07-08T04:48:16;95592.13;;;18.48;92.12
20027;BME280;10174;42.688;23.344;2023-07-08T04:50:45;95597.25;;;18.50;90.90
20027;BME280;10174;42.688;23.344;2023-07-08T04:53:11;95595.75;;;18.44;91.54
20027;BME280;10174;42.688;23.344;2023-07-08T04:55:43;95611.38;;;18.38;91.99
20027;BME280;10174;42.688;23.344;2023-07-08T04:58:09;95554.03;;;18.12;91.38
20027;BME280;10174;42.688;23.344;2023-07-08T05:00:35;95513.47;;;17.88;91.31
20027;BME280;10174;42.688;23.344;2023-07-08T05:03:00;95606.59;;;18.58;90.89
20027;BME280;10174;42.688;23.344;2023-07-08T05:05:26;95597.06;;;18.46;91.25
20027;BME280;10174;42.688;23.344;2023-07-08T05:07:52;95603.69;;;18.54;90.83
20027;BME280;10174;42.688;23.344;2023-07-08T05:10:18;95623.50;;;18.68;90.97
20027;BME280;10174;42.688;23.344;2023-07-08T05:12:44;95605.81;;;18.57;90.19
20027;BME280;10174;42.688;23.344;2023-07-08T05:15:10;95621.78;;;18.73;90.57
20027;BME280;10174;42.688;23.344;2023-07-08T05:17:37;95626.16;;;18.82;89.46
20027;BME280;10174;42.688;23.344;2023-07-08T05:20:04;95614.91;;;18.89;89.77
20027;BME280;10174;42.688;23.344;2023-07-08T05:22:29;95612.25;;;18.84;88.30
20027;BME280;10174;42.688;23.344;2023-07-08T05:24:55;95626.75;;;18.93;88.69
20027;BME280;10174;42.688;23.344;2023-07-08T05:27:23;95638.56;;;18.89;88.52
20027;BME280;10174;42.688;23.344;2023-07-08T05:29:49;95570.19;;;18.45;88.69
20027;BME280;10174;42.688;23.344;2023-07-08T05:32:15;95633.59;;;19.04;87.88
20027;BME280;10174;42.688;23.344;2023-07-08T05:34:42;95636.91;;;19.24;86.58
20027;BME280;10174;42.688;23.344;2023-07-08T05:37:08;95576.63;;;18.72;87.13
20027;BME280;10174;42.688;23.344;2023-07-08T05:39:33;95605.91;;;19.11;85.32
20027;BME280;10174;42.688;23.344;2023-07-08T05:41:59;95633.97;;;19.43;84.82
20027;BME280;10174;42.688;23.344;2023-07-08T05:44:25;95606.91;;;20.27;79.77
20027;BME280;10174;42.688;23.344;2023-07-08T05:46:50;95544.31;;;20.13;78.39
20027;BME280;10174;42.688;23.344;2023-07-08T05:49:16;95617.38;;;20.42;79.56
20027;BME280;10174;42.688;23.344;2023-07-08T05:51:43;95625.31;;;20.88;77.73
20027;BME280;10174;42.688;23.344;2023-07-08T05:54:09;95614.81;;;20.37;78.70
20027;BME280;10174;42.688;23.344;2023-07-08T05:56:34;95555.34;;;19.50;80.86
20027;BME280;10174;42.688;23.344;2023-07-08T05:59:00;95651.34;;;19.79;82.16
20027;BME280;10174;42.688;23.344;2023-07-08T06:01:25;95639.38;;;19.88;81.55
20027;BME280;10174;42.688;23.344;2023-07-08T06:03:50;95635.50;;;20.29;80.11
20027;BME280;10174;42.688;23.344;2023-07-08T06:06:16;95639.50;;;20.41;79.16
20027;BME280;10174;42.688;23.344;2023-07-08T06:08:42;95613.25;;;19.96;79.71
20027;BME280;10174;42.688;23.344;2023-07-08T06:11:07;95623.88;;;20.15;80.66
20027;BME280;10174;42.688;23.344;2023-07-08T06:13:33;95575.03;;;19.79;80.73
20027;BME280;10174;42.688;23.344;2023-07-08T06:15:58;95599.38;;;20.24;79.65
20027;BME280;10174;42.688;23.344;2023-07-08T06:18:23;95586.59;;;21.12;74.00
20027;BME280;10174;42.688;23.344;2023-07-08T06:20:56;95631.81;;;21.39;73.91
20027;BME280;10174;42.688;23.344;2023-07-08T06:23:22;95650.66;;;21.32;73.38
20027;BME280;10174;42.688;23.344;2023-07-08T06:25:48;95645.75;;;20.33;76.08
20027;BME280;10174;42.688;23.344;2023-07-08T06:28:13;95654.44;;;20.43;76.83
20027;BME280;10174;42.688;23.344;2023-07-08T06:30:39;95596.28;;;20.17;77.55
20027;BME280;10174;42.688;23.344;2023-07-08T06:33:04;95638.81;;;20.18;78.17
20027;BME280;10174;42.688;23.344;2023-07-08T06:35:30;95661.63;;;20.22;78.33
20027;BME280;10174;42.688;23.344;2023-07-08T06:37:55;95647.28;;;20.07;77.92
20027;BME280;10174;42.688;23.344;2023-07-08T06:40:21;95650.31;;;20.06;76.46
20027;BME280;10174;42.688;23.344;2023-07-08T06:42:46;95637.44;;;19.89;77.04
20027;BME280;10174;42.688;23.344;2023-07-08T06:45:12;95603.50;;;19.72;77.51
20027;BME280;10174;42.688;23.344;2023-07-08T06:47:37;95626.19;;;20.39;75.87
20027;BME280;10174;42.688;23.344;2023-07-08T06:50:03;95553.97;;;20.45;73.44
20027;BME280;10174;42.688;23.344;2023-07-08T06:52:28;95642.41;;;20.53;74.64
20027;BME280;10174;42.688;23.344;2023-07-08T06:55:04;95611.91;;;20.42;73.34
20027;BME280;10174;42.688;23.344;2023-07-08T06:57:29;95558.16;;;20.34;71.27
20027;BME280;10174;42.688;23.344;2023-07-08T06:59:55;95623.31;;;20.53;72.46
20027;BME280;10174;42.688;23.344;2023-07-08T07:02:20;95663.19;;;20.80;71.85
20027;BME280;10174;42.688;23.344;2023-07-08T07:04:46;95660.63;;;20.75;71.60
20027;BME280;10174;42.688;23.344;2023-07-08T07:07:11;95657.56;;;20.68;71.77
20027;BME280;10174;42.688;23.344;2023-07-08T07:09:37;95639.59;;;20.76;70.80
20027;BME280;10174;42.688;23.344;2023-07-08T07:12:02;95641.03;;;20.99;70.00
20027;BME280;10174;42.688;23.344;2023-07-08T07:14:28;95639.41;;;21.25;69.33
20027;BME280;10174;42.688;23.344;2023-07-08T07:16:54;95650.00;;;21.35;68.83
20027;BME280;10174;42.688;23.344;2023-07-08T07:19:19;95634.72;;;21.34;68.45
20027;BME280;10174;42.688;23.344;2023-07-08T07:21:46;95573.72;;;21.04;67.52
20027;BME280;10174;42.688;23.344;2023-07-08T07:24:12;95652.59;;;21.23;68.46
20027;BME280;10174;42.688;23.344;2023-07-08T07:26:37;95647.41;;;21.39;68.95
20027;BME280;10174;42.688;23.344;2023-07-08T07:29:02;95661.19;;;21.77;67.29
20027;BME280;10174;42.688;23.344;2023-07-08T07:31:28;95672.81;;;21.57;68.18
20027;BME280;10174;42.688;23.344;2023-07-08T07:33:53;95622.22;;;21.24;67.40
20027;BME280;10174;42.688;23.344;2023-07-08T07:36:19;95707.72;;;21.25;69.42
20027;BME280;10174;42.688;23.344;2023-07-08T07:38:45;95693.06;;;20.86;70.04
20027;BME280;10174;42.688;23.344;2023-07-08T07:41:10;95687.63;;;21.21;70.30
20027;BME280;10174;42.688;23.344;2023-07-08T07:43:38;95581.09;;;20.42;70.29
20027;BME280;10174;42.688;23.344;2023-07-08T07:46:03;95669.94;;;20.92;70.44
20027;BME280;10174;42.688;23.344;2023-07-08T07:48:30;95588.97;;;20.61;70.30
20027;BME280;10174;42.688;23.344;2023-07-08T07:50:56;95691.44;;;21.55;69.37
20027;BME280;10174;42.688;23.344;2023-07-08T07:53:21;95669.00;;;21.23;67.90
20027;BME280;10174;42.688;23.344;2023-07-08T07:55:47;95592.50;;;20.53;68.70
20027;BME280;10174;42.688;23.344;2023-07-08T07:58:12;95685.38;;;21.23;69.40
20027;BME280;10174;42.688;23.344;2023-07-08T08:00:38;95676.19;;;21.45;68.21
20027;BME280;10174;42.688;23.344;2023-07-08T08:03:04;95663.50;;;21.40;67.12
20027;BME280;10174;42.688;23.344;2023-07-08T08:05:29;95610.38;;;20.85;68.38
20027;BME280;10174;42.688;23.344;2023-07-08T08:07:55;95684.88;;;21.29;69.51
20027;BME280;10174;42.688;23.344;2023-07-08T08:10:20;95631.72;;;21.09;67.83
20027;BME280;10174;42.688;23.344;2023-07-08T08:12:45;95674.59;;;21.52;67.82
20027;BME280;10174;42.688;23.344;2023-07-08T08:15:13;95685.31;;;21.75;67.40
20027;BME280;10174;42.688;23.344;2023-07-08T08:17:39;95658.63;;;21.81;66.91
20027;BME280;10174;42.688;23.344;2023-07-08T08:20:05;95675.50;;;21.74;67.43
20027;BME280;10174;42.688;23.344;2023-07-08T08:22:30;95698.09;;;22.01;66.38
20027;BME280;10174;42.688;23.344;2023-07-08T08:24:56;95692.00;;;22.04;66.21
20027;BME280;10174;42.688;23.344;2023-07-08T08:27:21;95672.66;;;22.09;64.72
20027;BME280;10174;42.688;23.344;2023-07-08T08:29:46;95640.91;;;21.78;65.58
20027;BME280;10174;42.688;23.344;2023-07-08T08:32:12;95600.38;;;21.80;65.20
20027;BME280;10174;42.688;23.344;2023-07-08T08:34:39;95691.50;;;22.70;64.17
20027;BME280;10174;42.688;23.344;2023-07-08T08:37:04;95669.78;;;23.16;61.92
20027;BME280;10174;42.688;23.344;2023-07-08T08:39:30;95676.66;;;23.22;62.39
20027;BME280;10174;42.688;23.344;2023-07-08T08:41:56;95648.38;;;23.97;60.08
20027;BME280;10174;42.688;23.344;2023-07-08T08:44:29;95640.81;;;24.07;60.24
20027;BME280;10174;42.688;23.344;2023-07-08T08:47:22;95667.63;;;25.40;56.31
20027;BME280;10174;42.688;23.344;2023-07-08T08:50:20;95667.34;;;26.18;53.31
20027;BME280;10174;42.688;23.344;2023-07-08T08:52:50;95656.94;;;26.95;49.90
20027;BME280;10174;42.688;23.344;2023-07-08T08:55:16;95654.66;;;25.53;52.82
20027;BME280;10174;42.688;23.344;2023-07-08T08:57:52;95616.47;;;27.18;48.17
20027;BME280;10174;42.688;23.344;2023-07-08T09:00:25;95674.34;;;28.43;46.15
20027;BME280;10174;42.688;23.344;2023-07-08T09:03:20;95587.81;;;27.43;46.88
20027;BME280;10174;42.688;23.344;2023-07-08T09:05:45;95649.50;;;29.27;43.40
20027;BME280;10174;42.688;23.344;2023-07-08T09:08:31;95656.16;;;29.56;43.60
20027;BME280;10174;42.688;23.344;2023-07-08T09:11:01;95658.47;;;27.70;46.07
20027;BME280;10174;42.688;23.344;2023-07-08T09:13:32;95658.00;;;26.55;48.95
20027;BME280;10174;42.688;23.344;2023-07-08T09:16:04;95661.34;;;27.35;48.68
20027;BME280;10174;42.688;23.344;2023-07-08T09:18:35;95652.97;;;28.13;46.22
20027;BME280;10174;42.688;23.344;2023-07-08T09:21:13;95645.88;;;26.75;50.62
20027;BME280;10174;42.688;23.344;2023-07-08T09:23:39;95659.84;;;27.02;49.31
20027;BME280;10174;42.688;23.344;2023-07-08T09:26:11;95669.44;;;27.28;48.46
20027;BME280;10174;42.688;23.344;2023-07-08T09:28:44;95571.19;;;27.19;47.17
20027;BME280;10174;42.688;23.344;2023-07-08T09:31:28;95654.38;;;28.27;45.10
20027;BME280;10174;42.688;23.344;2023-07-08T09:34:15;95651.84;;;28.18;45.57
20027;BME280;10174;42.688;23.344;2023-07-08T09:36:46;95644.41;;;28.45;44.26
20027;BME280;10174;42.688;23.344;2023-07-08T09:39:14;95662.03;;;27.51;46.44
20027;BME280;10174;42.688;23.344;2023-07-08T09:41:41;95632.00;;;27.46;46.32
20027;BME280;10174;42.688;23.344;2023-07-08T09:44:22;95591.72;;;28.07;43.43
20027;BME280;10174;42.688;23.344;2023-07-08T09:46:58;95638.91;;;29.66;40.76
20027;BME280;10174;42.688;23.344;2023-07-08T09:49:28;95619.78;;;30.36;39.53
20027;BME280;10174;42.688;23.344;2023-07-08T09:51:54;95620.81;;;28.51;43.35
20027;BME280;10174;42.688;23.344;2023-07-08T09:54:21;95635.25;;;28.41;44.22
20027;BME280;10174;42.688;23.344;2023-07-08T09:57:04;95638.25;;;27.63;45.94
20027;BME280;10174;42.688;23.344;2023-07-08T09:59:39;95638.38;;;27.31;47.29
20027;BME280;10174;42.688;23.344;2023-07-08T10:02:51;95632.28;;;29.41;42.68
20027;BME280;10174;42.688;23.344;2023-07-08T10:05:38;95626.22;;;29.99;40.33
20027;BME280;10174;42.688;23.344;2023-07-08T10:08:15;95626.47;;;27.66;44.51
20027;BME280;10174;42.688;23.344;2023-07-08T10:10:42;95628.50;;;29.22;41.96
20027;BME280;10174;42.688;23.344;2023-07-08T10:15:53;95618.63;;;29.21;42.51
20027;BME280;10174;42.688;23.344;2023-07-08T10:18:26;95619.06;;;28.96;42.22
20027;BME280;10174;42.688;23.344;2023-07-08T10:24:01;95614.69;;;27.69;44.68
20027;BME280;10174;42.688;23.344;2023-07-08T10:26:32;95599.88;;;28.77;41.59
20027;BME280;10174;42.688;23.344;2023-07-08T10:29:31;95602.56;;;27.50;45.73
20027;BME280;10174;42.688;23.344;2023-07-08T10:37:28;95593.41;;;28.66;42.45
20027;BME280;10174;42.688;23.344;2023-07-08T10:43:25;95602.41;;;28.89;41.64
20027;BME280;10174;42.688;23.344;2023-07-08T10:51:17;95595.22;;;27.81;43.42
20027;BME280;10174;42.688;23.344;2023-07-08T10:56:25;95576.59;;;29.12;40.66
20027;BME280;10174;42.688;23.344;2023-07-08T11:04:33;95578.00;;;27.26;44.65
20027;BME280;10174;42.688;23.344;2023-07-08T11:07:22;95573.78;;;28.21;42.35
20027;BME280;10174;42.688;23.344;2023-07-08T11:09:55;95568.25;;;29.39;40.31
20027;BME280;10174;42.688;23.344;2023-07-08T11:17:25;95569.84;;;28.22;42.80
20027;BME280;10174;42.688;23.344;2023-07-08T11:20:01;95539.72;;;27.63;43.96
20027;BME280;10174;42.688;23.344;2023-07-08T11:22:29;95549.59;;;27.02;44.08
20027;BME280;10174;42.688;23.344;2023-07-08T11:24:57;95541.66;;;28.36;41.72
20027;BME280;10174;42.688;23.344;2023-07-08T11:27:32;95477.00;;;27.37;43.14
20027;BME280;10174;42.688;23.344;2023-07-08T11:30:23;95548.88;;;26.86;45.49
20027;BME280;10174;42.688;23.344;2023-07-08T11:33:10;95551.88;;;26.61;47.08
20027;BME280;10174;42.688;23.344;2023-07-08T11:38:06;95470.41;;;25.37;47.63
20027;BME280;10174;42.688;23.344;2023-07-08T11:40:53;95538.88;;;26.06;47.95
20027;BME280;10174;42.688;23.344;2023-07-08T11:43:22;95552.91;;;26.53;47.27
20027;BME280;10174;42.688;23.344;2023-07-08T11:45:50;95529.84;;;26.61;46.81
20027;BME280;10174;42.688;23.344;2023-07-08T11:48:22;95562.25;;;26.48;47.68
20027;BME280;10174;42.688;23.344;2023-07-08T11:50:50;95552.69;;;26.26;48.06
20027;BME280;10174;42.688;23.344;2023-07-08T11:56:03;95551.25;;;26.67;47.19
20027;BME280;10174;42.688;23.344;2023-07-08T11:59:03;95552.75;;;26.65;45.88
20027;BME280;10174;42.688;23.344;2023-07-08T12:04:26;95556.59;;;26.60;45.38
20027;BME280;10174;42.688;23.344;2023-07-08T12:07:12;95561.72;;;26.42;46.32
20027;BME280;10174;42.688;23.344;2023-07-08T12:09:57;95571.38;;;26.01;46.39
20027;BME280;10174;42.688;23.344;2023-07-08T12:12:35;95558.41;;;25.69;47.96
20027;BME280;10174;42.688;23.344;2023-07-08T12:17:39;95540.31;;;25.24;48.33
20027;BME280;10174;42.688;23.344;2023-07-08T12:20:32;95531.00;;;25.13;49.14
20027;BME280;10174;42.688;23.344;2023-07-08T12:22:56;95529.97;;;25.33;49.24
20027;BME280;10174;42.688;23.344;2023-07-08T12:25:26;95529.94;;;25.46;47.89
20027;BME280;10174;42.688;23.344;2023-07-08T12:27:52;95518.72;;;25.54;48.16
20027;BME280;10174;42.688;23.344;2023-07-08T12:30:17;95536.81;;;25.71;49.12
20027;BME280;10174;42.688;23.344;2023-07-08T12:32:44;95548.97;;;25.38;47.16
20027;BME280;10174;42.688;23.344;2023-07-08T12:35:38;95537.28;;;25.73;47.60
20027;BME280;10174;42.688;23.344;2023-07-08T12:38:16;95524.94;;;25.83;48.01
20027;BME280;10174;42.688;23.344;2023-07-08T12:40:43;95509.22;;;25.84;47.62
20027;BME280;10174;42.688;23.344;2023-07-08T12:43:12;95543.41;;;25.67;48.20
20027;BME280;10174;42.688;23.344;2023-07-08T12:45:38;95527.78;;;25.71;48.80
20027;BME280;10174;42.688;23.344;2023-07-08T12:48:03;95534.44;;;25.86;47.25
20027;BME280;10174;42.688;23.344;2023-07-08T12:50:29;95532.59;;;25.58;49.03
20027;BME280;10174;42.688;23.344;2023-07-08T12:52:54;95505.00;;;25.70;48.78
20027;BME280;10174;42.688;23.344;2023-07-08T12:55:21;95529.97;;;25.97;47.96
20027;BME280;10174;42.688;23.344;2023-07-08T12:57:49;95531.63;;;25.98;48.55
20027;BME280;10174;42.688;23.344;2023-07-08T13:00:27;95519.78;;;25.82;48.53
20027;BME280;10174;42.688;23.344;2023-07-08T13:05:30;95484.53;;;25.07;49.45
20027;BME280;10174;42.688;23.344;2023-07-08T13:07:56;95524.41;;;25.62;49.97
20027;BME280;10174;42.688;23.344;2023-07-08T13:10:24;95531.06;;;25.76;48.57
20027;BME280;10174;42.688;23.344;2023-07-08T13:13:03;95531.16;;;25.80;47.85
20027;BME280;10174;42.688;23.344;2023-07-08T13:15:34;95502.75;;;25.76;47.48
20027;BME280;10174;42.688;23.344;2023-07-08T13:18:01;95534.69;;;25.81;47.33
20027;BME280;10174;42.688;23.344;2023-07-08T13:20:27;95459.34;;;25.05;47.76
20027;BME280;10174;42.688;23.344;2023-07-08T13:23:00;95529.84;;;25.58;47.61
20027;BME280;10174;42.688;23.344;2023-07-08T13:25:31;95545.25;;;25.78;47.25
20027;BME280;10174;42.688;23.344;2023-07-08T13:28:03;95545.06;;;25.71;46.88
20027;BME280;10174;42.688;23.344;2023-07-08T13:30:39;95458.13;;;25.19;47.53
20027;BME280;10174;42.688;23.344;2023-07-08T13:33:15;95527.00;;;25.70;47.12
20027;BME280;10174;42.688;23.344;2023-07-08T13:35:42;95526.53;;;25.84;47.38
20027;BME280;10174;42.688;23.344;2023-07-08T13:38:15;95495.31;;;25.60;48.40
20027;BME280;10174;42.688;23.344;2023-07-08T13:40:47;95523.88;;;25.88;47.94
20027;BME280;10174;42.688;23.344;2023-07-08T13:43:14;95524.31;;;25.90;47.68
20027;BME280;10174;42.688;23.344;2023-07-08T13:45:44;95522.53;;;25.82;48.32
20027;BME280;10174;42.688;23.344;2023-07-08T13:51:15;95510.03;;;26.00;48.70
20027;BME280;10174;42.688;23.344;2023-07-08T13:53:49;95538.31;;;26.17;48.35
20027;BME280;10174;42.688;23.344;2023-07-08T13:56:35;95538.31;;;26.17;47.54
20027;BME280;10174;42.688;23.344;2023-07-08T13:59:05;95535.84;;;25.95;47.32
20027;BME280;10174;42.688;23.344;2023-07-08T14:01:32;95531.34;;;25.55;47.97
20027;BME280;10174;42.688;23.344;2023-07-08T14:03:58;95541.00;;;25.81;48.46